createdAt,value
2018-06-27T00:00:13.047Z,1009.12
2018-06-27T00:00:53.554Z,1009.11
2018-06-27T00:01:34.088Z,1009.14
2018-06-27T00:02:14.619Z,1009.12
2018-06-27T00:02:55.127Z,1009.09
2018-06-27T00:03:35.653Z,1009.12
2018-06-27T00:04:16.175Z,1009.13
2018-06-27T00:04:56.691Z,1009.13
2018-06-27T00:05:37.204Z,1009.11
2018-06-27T00:06:17.725Z,1009.11
2018-06-27T00:06:58.266Z,1009.05
2018-06-27T00:07:38.796Z,1009.09
2018-06-27T00:08:19.330Z,1009.08
2018-06-27T00:08:59.841Z,1009.02
2018-06-27T00:09:40.383Z,1009.05
2018-06-27T00:10:20.923Z,1009.03
2018-06-27T00:11:01.446Z,1009.07
2018-06-27T00:11:41.968Z,1009.08
2018-06-27T00:12:22.493Z,1009.08
2018-06-27T00:13:03.016Z,1009.03
2018-06-27T00:13:43.551Z,1009.04
2018-06-27T00:14:24.083Z,1009.04
2018-06-27T00:15:04.608Z,1009.05
2018-06-27T00:15:45.114Z,1009.03
2018-06-27T00:16:25.630Z,1009.01
2018-06-27T00:17:06.157Z,1008.97
2018-06-27T00:17:46.686Z,1008.97
2018-06-27T00:18:27.213Z,1009.01
2018-06-27T00:19:07.742Z,1009
2018-06-27T00:19:48.275Z,1009.03
2018-06-27T00:20:28.793Z,1009.04
2018-06-27T00:21:09.320Z,1008.96
2018-06-27T00:21:49.839Z,1009.02
2018-06-27T00:22:30.368Z,1008.99
2018-06-27T00:23:10.883Z,1009.03
2018-06-27T00:23:51.407Z,1008.98
2018-06-27T00:24:31.937Z,1009.07
2018-06-27T00:25:12.469Z,1008.99
2018-06-27T00:25:53.001Z,1009.01
2018-06-27T00:26:33.522Z,1008.98
2018-06-27T00:27:14.026Z,1009.03
2018-06-27T00:27:54.546Z,1009
2018-06-27T00:28:35.071Z,1009
2018-06-27T00:29:15.599Z,1008.99
2018-06-27T00:29:56.107Z,1009.02
2018-06-27T00:30:36.650Z,1008.99
2018-06-27T00:31:17.173Z,1008.97
2018-06-27T00:31:57.702Z,1009.04
2018-06-27T00:32:38.228Z,1008.98
2018-06-27T00:33:18.761Z,1008.98
2018-06-27T00:33:59.365Z,1009.03
2018-06-27T00:34:39.799Z,1009.05
2018-06-27T00:35:20.314Z,1009
2018-06-27T00:36:00.924Z,1008.97
2018-06-27T00:36:41.440Z,1009.01
2018-06-27T00:37:21.976Z,1009
2018-06-27T00:38:02.492Z,1008.95
2018-06-27T00:38:43.037Z,1009
2018-06-27T00:39:23.572Z,1008.98
2018-06-27T00:40:04.081Z,1008.96
2018-06-27T00:40:44.604Z,1009
2018-06-27T00:41:25.132Z,1008.99
2018-06-27T00:42:05.678Z,1009.02
2018-06-27T00:42:46.216Z,1008.98
2018-06-27T00:43:26.761Z,1008.99
2018-06-27T00:44:07.272Z,1008.98
2018-06-27T00:44:47.788Z,1009.01
2018-06-27T00:45:28.327Z,1009
2018-06-27T00:46:08.848Z,1008.99
2018-06-27T00:46:49.363Z,1008.96
2018-06-27T00:47:29.887Z,1008.94
2018-06-27T00:48:10.419Z,1008.96
2018-06-27T00:48:50.994Z,1008.99
2018-06-27T00:49:31.494Z,1008.99
2018-06-27T00:50:12.021Z,1008.96
2018-06-27T00:50:52.552Z,1008.98
2018-06-27T00:51:33.056Z,1008.99
2018-06-27T00:52:13.574Z,1008.98
2018-06-27T00:52:54.089Z,1008.98
2018-06-27T00:53:34.629Z,1008.94
2018-06-27T00:54:15.167Z,1008.95
2018-06-27T00:54:55.691Z,1008.9
2018-06-27T00:55:36.209Z,1008.93
2018-06-27T00:56:16.736Z,1008.94
2018-06-27T00:56:57.258Z,1008.91
2018-06-27T00:57:37.782Z,1008.91
2018-06-27T00:58:18.309Z,1008.88
2018-06-27T00:58:58.840Z,1008.89
2018-06-27T00:59:39.356Z,1008.89
2018-06-27T01:00:19.869Z,1008.93
2018-06-27T01:01:00.384Z,1008.91
2018-06-27T01:01:40.907Z,1008.89
2018-06-27T01:02:21.581Z,1008.93
2018-06-27T01:03:02.115Z,1008.95
2018-06-27T01:03:42.630Z,1008.91
2018-06-27T01:04:23.159Z,1008.96
2018-06-27T01:05:03.671Z,1008.93
2018-06-27T01:05:44.187Z,1008.94
2018-06-27T01:06:24.707Z,1008.95
2018-06-27T01:07:05.247Z,1008.92
2018-06-27T01:07:45.799Z,1008.91
2018-06-27T01:08:26.294Z,1008.9
2018-06-27T01:09:06.818Z,1008.9
2018-06-27T01:09:47.341Z,1008.9
2018-06-27T01:10:27.881Z,1008.9
2018-06-27T01:11:08.382Z,1008.9
2018-06-27T01:11:48.900Z,1008.88
2018-06-27T01:12:29.437Z,1008.9
2018-06-27T01:13:09.960Z,1008.86
2018-06-27T01:13:50.504Z,1008.88
2018-06-27T01:14:31.018Z,1008.86
2018-06-27T01:15:11.533Z,1008.91
2018-06-27T01:15:52.055Z,1008.86
2018-06-27T01:16:32.576Z,1008.91
2018-06-27T01:17:13.093Z,1008.9
2018-06-27T01:17:53.631Z,1008.91
2018-06-27T01:18:34.145Z,1008.89
2018-06-27T01:19:14.663Z,1008.87
2018-06-27T01:19:55.177Z,1008.84
2018-06-27T01:20:35.698Z,1008.87
2018-06-27T01:21:16.218Z,1008.89
2018-06-27T01:21:56.758Z,1008.86
2018-06-27T01:22:37.262Z,1008.85
2018-06-27T01:23:17.785Z,1008.86
2018-06-27T01:23:58.301Z,1008.85
2018-06-27T01:24:38.825Z,1008.84
2018-06-27T01:25:19.340Z,1008.92
2018-06-27T01:25:59.862Z,1008.91
2018-06-27T01:26:40.389Z,1008.89
2018-06-27T01:27:20.905Z,1008.88
2018-06-27T01:29:39.274Z,1008.85
2018-06-27T01:30:19.797Z,1008.84
2018-06-27T01:31:00.308Z,1008.84
2018-06-27T01:31:40.814Z,1008.81
2018-06-27T01:32:21.346Z,1008.85
2018-06-27T01:33:01.857Z,1008.81
2018-06-27T01:33:42.394Z,1008.79
2018-06-27T01:34:22.914Z,1008.82
2018-06-27T01:35:03.446Z,1008.84
2018-06-27T01:35:43.968Z,1008.84
2018-06-27T01:36:24.484Z,1008.81
2018-06-27T01:37:05.029Z,1008.81
2018-06-27T01:37:45.559Z,1008.8
2018-06-27T01:38:26.076Z,1008.81
2018-06-27T01:39:06.588Z,1008.85
2018-06-27T01:39:47.109Z,1008.8
2018-06-27T01:40:27.629Z,1008.83
2018-06-27T01:41:08.165Z,1008.85
2018-06-27T01:41:48.691Z,1008.78
2018-06-27T01:42:29.218Z,1008.85
2018-06-27T01:43:09.754Z,1008.82
2018-06-27T01:43:50.288Z,1008.83
2018-06-27T01:44:30.791Z,1008.81
2018-06-27T01:45:11.308Z,1008.82
2018-06-27T01:45:51.840Z,1008.85
2018-06-27T01:46:32.357Z,1008.81
2018-06-27T01:47:12.897Z,1008.86
2018-06-27T01:47:53.446Z,1008.83
2018-06-27T01:48:33.992Z,1008.88
2018-06-27T01:49:14.511Z,1008.84
2018-06-27T01:49:55.056Z,1008.86
2018-06-27T01:50:35.587Z,1008.89
2018-06-27T01:51:16.128Z,1008.88
2018-06-27T01:51:56.605Z,1008.88
2018-06-27T01:52:37.095Z,1008.9
2018-06-27T01:53:17.651Z,1008.9
2018-06-27T01:53:58.121Z,1008.92
2018-06-27T01:54:38.608Z,1008.93
2018-06-27T01:55:19.156Z,1008.98
2018-06-27T01:55:59.613Z,1008.9
2018-06-27T01:56:40.135Z,1008.96
2018-06-27T01:57:20.669Z,1008.92
2018-06-27T01:58:01.174Z,1008.92
2018-06-27T01:58:41.689Z,1008.92
2018-06-27T01:59:22.193Z,1008.9
2018-06-27T02:00:02.709Z,1008.95
2018-06-27T02:00:43.244Z,1008.94
2018-06-27T02:01:23.765Z,1008.91
2018-06-27T02:02:04.371Z,1008.92
2018-06-27T02:02:44.919Z,1008.96
2018-06-27T02:03:25.418Z,1008.94
2018-06-27T02:04:05.932Z,1008.95
2018-06-27T02:04:46.453Z,1008.97
2018-06-27T02:05:26.988Z,1008.97
2018-06-27T02:06:07.510Z,1008.98
2018-06-27T02:06:48.030Z,1008.93
2018-06-27T02:07:28.544Z,1008.98
2018-06-27T02:08:09.061Z,1008.96
2018-06-27T02:08:49.588Z,1008.97
2018-06-27T02:09:30.111Z,1008.98
2018-06-27T02:10:10.634Z,1008.96
2018-06-27T02:10:51.146Z,1008.98
2018-06-27T02:11:31.660Z,1009
2018-06-27T02:12:12.209Z,1008.96
2018-06-27T02:12:52.727Z,1008.95
2018-06-27T02:13:33.252Z,1008.88
2018-06-27T02:14:13.780Z,1008.95
2018-06-27T02:14:54.310Z,1008.95
2018-06-27T02:15:34.814Z,1008.92
2018-06-27T02:16:15.365Z,1008.94
2018-06-27T02:16:55.830Z,1008.95
2018-06-27T02:17:36.305Z,1008.95
2018-06-27T02:18:16.826Z,1008.95
2018-06-27T02:18:57.357Z,1008.99
2018-06-27T02:19:37.832Z,1008.95
2018-06-27T02:20:18.349Z,1008.96
2018-06-27T02:20:58.881Z,1008.95
2018-06-27T02:21:39.379Z,1008.95
2018-06-27T02:22:19.938Z,1008.97
2018-06-27T02:23:00.426Z,1008.95
2018-06-27T02:23:40.941Z,1008.96
2018-06-27T02:24:21.474Z,1008.98
2018-06-27T02:25:01.997Z,1008.96
2018-06-27T02:25:42.510Z,1009
2018-06-27T02:26:23.076Z,1008.98
2018-06-27T02:27:03.590Z,1008.99
2018-06-27T02:27:44.093Z,1009.01
2018-06-27T02:28:24.621Z,1008.99
2018-06-27T02:29:05.108Z,1009.01
2018-06-27T02:29:45.625Z,1009
2018-06-27T02:30:26.098Z,1008.99
2018-06-27T02:31:06.601Z,1008.99
2018-06-27T02:31:47.116Z,1008.96
2018-06-27T02:32:27.645Z,1008.96
2018-06-27T02:33:08.154Z,1008.95
2018-06-27T02:33:48.677Z,1009.03
2018-06-27T02:34:29.195Z,1009.02
2018-06-27T02:35:09.736Z,1009.01
2018-06-27T02:35:50.259Z,1009.02
2018-06-27T02:36:30.787Z,1009.02
2018-06-27T02:37:11.316Z,1009.03
2018-06-27T02:37:51.865Z,1009
2018-06-27T02:38:32.432Z,1009.01
2018-06-27T02:39:12.914Z,1009.07
2018-06-27T02:39:53.435Z,1009.01
2018-06-27T02:40:33.968Z,1009.05
2018-06-27T02:41:14.491Z,1009.04
2018-06-27T02:41:55.006Z,1009.07
2018-06-27T02:42:35.514Z,1009.05
2018-06-27T02:43:16.052Z,1009.05
2018-06-27T02:43:56.569Z,1009.09
2018-06-27T02:44:37.104Z,1009.08
2018-06-27T02:45:17.618Z,1009.09
2018-06-27T02:45:58.139Z,1009.07
2018-06-27T02:46:38.674Z,1009.09
2018-06-27T02:47:19.211Z,1009.07
2018-06-27T02:47:59.737Z,1009.12
2018-06-27T02:48:40.354Z,1009.12
2018-06-27T02:49:20.771Z,1009.13
2018-06-27T02:50:01.289Z,1009.19
2018-06-27T02:50:41.806Z,1009.18
2018-06-27T02:51:22.316Z,1009.16
2018-06-27T02:52:02.831Z,1009.2
2018-06-27T02:52:43.340Z,1009.2
2018-06-27T02:53:23.862Z,1009.26
2018-06-27T02:54:04.393Z,1009.22
2018-06-27T02:54:44.922Z,1009.25
2018-06-27T02:55:25.467Z,1009.29
2018-06-27T02:56:05.984Z,1009.33
2018-06-27T02:56:46.485Z,1009.29
2018-06-27T02:57:26.993Z,1009.32
2018-06-27T02:58:07.494Z,1009.33
2018-06-27T02:58:48.010Z,1009.37
2018-06-27T02:59:28.496Z,1009.38
2018-06-27T03:00:09.012Z,1009.4
2018-06-27T03:00:49.530Z,1009.39
2018-06-27T03:01:30.047Z,1009.46
2018-06-27T03:02:10.552Z,1009.46
2018-06-27T03:02:51.083Z,1009.46
2018-06-27T03:03:31.596Z,1009.48
2018-06-27T03:04:12.117Z,1009.47
2018-06-27T03:04:52.652Z,1009.44
2018-06-27T03:05:33.173Z,1009.45
2018-06-27T03:06:13.679Z,1009.45
2018-06-27T03:06:54.206Z,1009.45
2018-06-27T03:07:34.715Z,1009.45
2018-06-27T03:08:15.236Z,1009.44
2018-06-27T03:08:55.774Z,1009.44
2018-06-27T03:09:36.278Z,1009.48
2018-06-27T03:10:16.798Z,1009.47
2018-06-27T03:10:57.325Z,1009.45
2018-06-27T03:11:37.848Z,1009.48
2018-06-27T03:12:18.406Z,1009.47
2018-06-27T03:12:58.861Z,1009.53
2018-06-27T03:13:39.378Z,1009.46
2018-06-27T03:14:19.910Z,1009.47
2018-06-27T03:15:00.418Z,1009.46
2018-06-27T03:15:40.947Z,1009.51
2018-06-27T03:16:21.453Z,1009.43
2018-06-27T03:17:01.976Z,1009.47
2018-06-27T03:17:42.500Z,1009.47
2018-06-27T03:18:23.039Z,1009.5
2018-06-27T03:19:03.561Z,1009.55
2018-06-27T03:19:44.078Z,1009.55
2018-06-27T03:20:24.648Z,1009.54
2018-06-27T03:21:05.127Z,1009.53
2018-06-27T03:21:45.629Z,1009.49
2018-06-27T03:22:26.145Z,1009.55
2018-06-27T03:23:06.662Z,1009.56
2018-06-27T03:23:47.185Z,1009.53
2018-06-27T03:24:27.709Z,1009.56
2018-06-27T03:25:08.222Z,1009.55
2018-06-27T03:25:48.747Z,1009.51
2018-06-27T03:26:29.272Z,1009.55
2018-06-27T03:27:09.781Z,1009.56
2018-06-27T03:27:50.324Z,1009.58
2018-06-27T03:28:30.857Z,1009.58
2018-06-27T03:29:11.378Z,1009.56
2018-06-27T03:29:51.902Z,1009.53
2018-06-27T03:30:32.425Z,1009.51
2018-06-27T03:31:12.944Z,1009.5
2018-06-27T03:31:53.469Z,1009.54
2018-06-27T03:32:33.914Z,1009.51
2018-06-27T03:33:14.428Z,1009.55
2018-06-27T03:33:54.963Z,1009.53
2018-06-27T03:34:35.480Z,1009.55
2018-06-27T03:35:16.006Z,1009.54
2018-06-27T03:35:56.556Z,1009.51
2018-06-27T03:36:37.126Z,1009.5
2018-06-27T03:37:17.626Z,1009.53
2018-06-27T03:37:58.100Z,1009.54
2018-06-27T03:38:38.618Z,1009.49
2018-06-27T03:39:19.105Z,1009.52
2018-06-27T03:39:59.621Z,1009.47
2018-06-27T03:40:40.112Z,1009.52
2018-06-27T03:41:20.626Z,1009.51
2018-06-27T03:42:01.143Z,1009.49
2018-06-27T03:42:41.688Z,1009.51
2018-06-27T03:43:22.200Z,1009.5
2018-06-27T03:44:02.709Z,1009.52
2018-06-27T03:44:43.215Z,1009.49
2018-06-27T03:45:23.763Z,1009.53
2018-06-27T03:46:04.212Z,1009.58
2018-06-27T03:46:44.698Z,1009.52
2018-06-27T03:47:25.194Z,1009.51
2018-06-27T03:48:05.729Z,1009.54
2018-06-27T03:48:46.260Z,1009.51
2018-06-27T03:49:26.785Z,1009.51
2018-06-27T03:50:07.294Z,1009.51
2018-06-27T03:50:47.806Z,1009.54
2018-06-27T03:51:28.321Z,1009.56
2018-06-27T03:52:08.847Z,1009.56
2018-06-27T03:52:49.369Z,1009.57
2018-06-27T03:53:29.888Z,1009.52
2018-06-27T03:54:10.420Z,1009.54
2018-06-27T03:54:50.934Z,1009.56
2018-06-27T03:55:31.513Z,1009.65
2018-06-27T03:56:11.973Z,1009.55
2018-06-27T03:56:52.507Z,1009.6
2018-06-27T03:57:33.038Z,1009.6
2018-06-27T03:58:13.539Z,1009.62
2018-06-27T03:58:54.161Z,1009.61
2018-06-27T03:59:34.609Z,1009.59
2018-06-27T04:00:15.143Z,1009.66
2018-06-27T04:00:55.617Z,1009.67
2018-06-27T04:01:36.164Z,1009.64
2018-06-27T04:02:16.670Z,1009.65
2018-06-27T04:02:57.147Z,1009.64
2018-06-27T04:03:37.670Z,1009.67
2018-06-27T04:04:18.231Z,1009.66
2018-06-27T04:04:58.708Z,1009.67
2018-06-27T04:05:39.212Z,1009.64
2018-06-27T04:06:19.728Z,1009.68
2018-06-27T04:07:00.257Z,1009.67
2018-06-27T04:07:40.773Z,1009.67
2018-06-27T04:08:21.288Z,1009.71
2018-06-27T04:09:01.822Z,1009.7
2018-06-27T04:09:42.352Z,1009.69
2018-06-27T04:10:23.422Z,1009.66
2018-06-27T04:11:03.991Z,1009.62
2018-06-27T04:11:44.507Z,1009.61
2018-06-27T04:12:25.031Z,1009.66
2018-06-27T04:13:05.748Z,1009.66
2018-06-27T04:13:46.077Z,1009.68
2018-06-27T04:14:26.667Z,1009.69
2018-06-27T04:15:07.114Z,1009.68
2018-06-27T04:15:47.645Z,1009.71
2018-06-27T04:16:28.167Z,1009.67
2018-06-27T04:17:08.693Z,1009.76
2018-06-27T04:17:49.214Z,1009.79
2018-06-27T04:18:29.739Z,1009.76
2018-06-27T04:19:10.285Z,1009.77
2018-06-27T04:19:50.808Z,1009.77
2018-06-27T04:20:31.340Z,1009.83
2018-06-27T04:21:11.871Z,1009.86
2018-06-27T04:21:52.372Z,1009.83
2018-06-27T04:22:32.902Z,1009.85
2018-06-27T04:23:13.443Z,1009.83
2018-06-27T04:23:53.981Z,1009.84
2018-06-27T04:24:34.510Z,1009.85
2018-06-27T04:25:15.045Z,1009.89
2018-06-27T04:25:55.563Z,1009.89
2018-06-27T04:26:36.111Z,1009.87
2018-06-27T04:27:16.537Z,1009.88
2018-06-27T04:27:57.082Z,1009.93
2018-06-27T04:28:37.575Z,1009.96
2018-06-27T04:29:18.076Z,1009.98
2018-06-27T04:29:58.593Z,1009.94
2018-06-27T04:30:39.076Z,1009.95
2018-06-27T04:31:19.613Z,1009.91
2018-06-27T04:32:00.145Z,1009.97
2018-06-27T04:32:40.671Z,1010.01
2018-06-27T04:33:21.199Z,1009.97
2018-06-27T04:34:01.720Z,1009.94
2018-06-27T04:34:42.246Z,1010.01
2018-06-27T04:35:22.775Z,1009.98
2018-06-27T04:36:03.333Z,1009.99
2018-06-27T04:36:43.832Z,1010
2018-06-27T04:37:24.345Z,1009.96
2018-06-27T04:38:04.877Z,1009.96
2018-06-27T04:38:45.389Z,1010.06
2018-06-27T04:39:25.909Z,1010.02
2018-06-27T04:40:06.440Z,1010.01
2018-06-27T04:40:46.966Z,1010.04
2018-06-27T04:41:27.499Z,1010.03
2018-06-27T04:42:08.031Z,1010.05
2018-06-27T04:42:48.574Z,1010.08
2018-06-27T04:43:29.102Z,1010.08
2018-06-27T04:44:09.615Z,1010.14
2018-06-27T04:44:50.159Z,1010.23
2018-06-27T04:45:30.685Z,1010.31
2018-06-27T04:46:11.202Z,1010.29
2018-06-27T04:46:51.733Z,1010.3
2018-06-27T04:47:32.269Z,1010.19
2018-06-27T04:48:12.792Z,1010.24
2018-06-27T04:48:53.314Z,1010.07
2018-06-27T04:49:33.863Z,1010.07
2018-06-27T04:50:14.366Z,1010.13
2018-06-27T04:50:54.887Z,1010.12
2018-06-27T04:51:35.396Z,1010.06
2018-06-27T04:52:15.929Z,1010.16
2018-06-27T04:52:56.449Z,1010.16
2018-06-27T04:53:36.970Z,1010.12
2018-06-27T04:54:17.515Z,1010.14
2018-06-27T04:54:58.061Z,1010.15
2018-06-27T04:55:38.554Z,1010.2
2018-06-27T04:56:19.074Z,1010.2
2018-06-27T04:56:59.594Z,1010.19
2018-06-27T04:57:40.124Z,1010.22
2018-06-27T04:58:20.643Z,1010.22
2018-06-27T04:59:01.170Z,1010.21
2018-06-27T04:59:41.726Z,1010.18
2018-06-27T05:00:22.237Z,1010.18
2018-06-27T05:01:02.734Z,1010.12
2018-06-27T05:01:43.269Z,1010.13
2018-06-27T05:02:23.790Z,1010.13
2018-06-27T05:03:04.295Z,1010.12
2018-06-27T05:03:44.838Z,1010.12
2018-06-27T05:04:25.358Z,1010.06
2018-06-27T05:05:05.895Z,1010.06
2018-06-27T05:05:46.402Z,1010.1
2018-06-27T05:06:26.929Z,1010.09
2018-06-27T05:07:07.578Z,1010.09
2018-06-27T05:07:48.038Z,1010.05
2018-06-27T05:08:28.433Z,1010.05
2018-06-27T05:09:08.935Z,1010.04
2018-06-27T05:09:49.431Z,1010
2018-06-27T05:10:29.926Z,1010.03
2018-06-27T05:11:10.432Z,1010.03
2018-06-27T05:11:50.951Z,1009.96
2018-06-27T05:12:31.940Z,1010.01
2018-06-27T05:14:34.221Z,1010.1
2018-06-27T05:16:25.164Z,1010.01
2018-06-27T05:17:05.717Z,1010.08
2018-06-27T05:17:46.194Z,1010.06
2018-06-27T05:18:26.688Z,1010.04
2018-06-27T05:19:07.161Z,1010.09
2018-06-27T05:19:47.674Z,1010.15
2018-06-27T05:20:28.193Z,1010.13
2018-06-27T05:21:08.685Z,1010.09
2018-06-27T05:21:49.384Z,1010.14
2018-06-27T05:22:29.755Z,1010.08
2018-06-27T05:23:10.273Z,1010.08
2018-06-27T05:23:50.784Z,1010.06
2018-06-27T05:24:31.329Z,1010.12
2018-06-27T05:25:11.817Z,1010.11
2018-06-27T05:25:52.311Z,1010.09
2018-06-27T05:26:32.837Z,1010.09
2018-06-27T05:27:13.430Z,1010.06
2018-06-27T05:27:53.871Z,1010.08
2018-06-27T05:28:34.400Z,1010.1
2018-06-27T05:29:14.908Z,1010.1
2018-06-27T05:29:55.441Z,1010.15
2018-06-27T05:30:35.980Z,1010.08
2018-06-27T05:31:16.508Z,1010.05
2018-06-27T05:31:57.020Z,1010.07
2018-06-27T05:32:37.595Z,1010.15
2018-06-27T05:33:18.102Z,1010.11
2018-06-27T05:33:58.667Z,1010.14
2018-06-27T05:34:39.157Z,1010.13
2018-06-27T05:35:19.904Z,1010.1
2018-06-27T05:36:00.438Z,1010.14
2018-06-27T05:36:40.963Z,1010.13
2018-06-27T05:37:21.461Z,1010.18
2018-06-27T05:38:01.971Z,1010.18
2018-06-27T05:38:42.494Z,1010.19
2018-06-27T05:39:23.031Z,1010.2
2018-06-27T05:40:03.561Z,1010.21
2018-06-27T05:40:44.102Z,1010.24
2018-06-27T05:41:24.619Z,1010.18
2018-06-27T05:42:05.140Z,1010.16
2018-06-27T05:42:45.633Z,1010.16
2018-06-27T05:43:26.190Z,1010.11
2018-06-27T05:44:06.698Z,1010.2
2018-06-27T05:44:47.229Z,1010.19
2018-06-27T05:45:27.769Z,1010.16
2018-06-27T05:46:08.306Z,1010.21
2018-06-27T05:46:48.840Z,1010.22
2018-06-27T05:47:29.376Z,1010.21
2018-06-27T05:48:09.901Z,1010.26
2018-06-27T05:48:50.404Z,1010.25
2018-06-27T05:49:30.937Z,1010.25
2018-06-27T05:50:11.466Z,1010.24
2018-06-27T05:50:51.996Z,1010.23
2018-06-27T05:51:32.564Z,1010.2
2018-06-27T05:52:13.025Z,1010.24
2018-06-27T05:52:53.577Z,1010.21
2018-06-27T05:53:34.102Z,1010.24
2018-06-27T05:54:14.565Z,1010.28
2018-06-27T05:54:55.076Z,1010.27
2018-06-27T05:55:35.610Z,1010.32
2018-06-27T05:56:16.099Z,1010.22
2018-06-27T05:56:56.620Z,1010.24
2018-06-27T05:57:37.084Z,1010.29
2018-06-27T05:58:17.626Z,1010.23
2018-06-27T05:58:58.131Z,1010.24
2018-06-27T05:59:38.655Z,1010.23
2018-06-27T06:00:19.167Z,1010.27
2018-06-27T06:00:59.700Z,1010.23
2018-06-27T06:01:40.245Z,1010.24
2018-06-27T06:02:20.770Z,1010.25
2018-06-27T06:03:01.269Z,1010.32
2018-06-27T06:03:41.815Z,1010.29
2018-06-27T06:04:22.356Z,1010.31
2018-06-27T06:05:02.831Z,1010.39
2018-06-27T06:05:43.385Z,1010.3
2018-06-27T06:06:23.909Z,1010.27
2018-06-27T06:07:04.473Z,1010.24
2018-06-27T06:07:44.984Z,1010.26
2018-06-27T06:08:25.491Z,1010.27
2018-06-27T06:09:06.020Z,1010.25
2018-06-27T06:09:46.519Z,1010.25
2018-06-27T06:10:27.058Z,1010.28
2018-06-27T06:11:07.647Z,1010.24
2018-06-27T06:11:48.101Z,1010.25
2018-06-27T06:12:28.633Z,1010.22
2018-06-27T06:13:09.144Z,1010.26
2018-06-27T06:13:49.681Z,1010.26
2018-06-27T06:14:30.202Z,1010.25
2018-06-27T06:15:10.712Z,1010.31
2018-06-27T06:15:51.233Z,1010.25
2018-06-27T06:16:31.767Z,1010.29
2018-06-27T06:17:12.281Z,1010.25
2018-06-27T06:17:52.802Z,1010.21
2018-06-27T06:18:33.335Z,1010.29
2018-06-27T06:19:13.855Z,1010.33
2018-06-27T06:19:54.383Z,1010.25
2018-06-27T06:20:34.897Z,1010.3
2018-06-27T06:21:15.430Z,1010.31
2018-06-27T06:21:55.961Z,1010.28
2018-06-27T06:22:36.501Z,1010.31
2018-06-27T06:23:17.027Z,1010.33
2018-06-27T06:23:57.533Z,1010.33
2018-06-27T06:24:38.053Z,1010.34
2018-06-27T06:25:18.582Z,1010.33
2018-06-27T06:25:59.102Z,1010.34
2018-06-27T06:26:39.615Z,1010.32
2018-06-27T06:27:20.156Z,1010.38
2018-06-27T06:28:00.676Z,1010.34
2018-06-27T06:28:41.199Z,1010.3
2018-06-27T06:29:21.968Z,1010.37
2018-06-27T06:30:02.509Z,1010.29
2018-06-27T06:30:43.032Z,1010.29
2018-06-27T06:31:23.580Z,1010.31
2018-06-27T06:32:04.144Z,1010.28
2018-06-27T06:32:44.641Z,1010.25
2018-06-27T06:33:25.159Z,1010.23
2018-06-27T06:34:05.681Z,1010.29
2018-06-27T06:34:46.205Z,1010.27
2018-06-27T06:35:26.790Z,1010.26
2018-06-27T06:36:07.260Z,1010.29
2018-06-27T06:36:47.797Z,1010.28
2018-06-27T06:37:28.322Z,1010.25
2018-06-27T06:38:08.856Z,1010.29
2018-06-27T06:38:49.417Z,1010.3
2018-06-27T06:39:29.942Z,1010.29
2018-06-27T06:40:10.461Z,1010.3
2018-06-27T06:40:50.984Z,1010.33
2018-06-27T06:41:31.511Z,1010.33
2018-06-27T06:42:12.033Z,1010.29
2018-06-27T06:42:52.584Z,1010.29
2018-06-27T06:43:33.111Z,1010.31
2018-06-27T06:44:13.626Z,1010.3
2018-06-27T06:44:54.152Z,1010.31
2018-06-27T06:45:34.672Z,1010.25
2018-06-27T06:46:15.199Z,1010.28
2018-06-27T06:46:55.718Z,1010.27
2018-06-27T06:47:36.243Z,1010.26
2018-06-27T06:48:16.753Z,1010.3
2018-06-27T06:48:57.285Z,1010.23
2018-06-27T06:49:37.812Z,1010.25
2018-06-27T06:50:18.347Z,1010.27
2018-06-27T06:50:58.856Z,1010.28
2018-06-27T06:51:39.412Z,1010.25
2018-06-27T06:52:19.938Z,1010.27
2018-06-27T06:53:00.490Z,1010.24
2018-06-27T06:53:41.014Z,1010.28
2018-06-27T06:54:21.581Z,1010.25
2018-06-27T06:55:02.105Z,1010.21
2018-06-27T06:55:42.637Z,1010.27
2018-06-27T06:56:23.162Z,1010.24
2018-06-27T06:57:03.732Z,1010.26
2018-06-27T06:57:44.257Z,1010.23
2018-06-27T06:58:24.780Z,1010.29
2018-06-27T06:59:05.311Z,1010.26
2018-06-27T06:59:45.817Z,1010.23
2018-06-27T07:00:26.420Z,1010.28
2018-06-27T07:01:06.908Z,1010.24
2018-06-27T07:01:47.456Z,1010.24
2018-06-27T07:02:27.977Z,1010.25
2018-06-27T07:03:08.496Z,1010.23
2018-06-27T07:03:49.065Z,1010.26
2018-06-27T07:04:29.578Z,1010.24
2018-06-27T07:05:10.109Z,1010.27
2018-06-27T07:05:50.635Z,1010.28
2018-06-27T07:06:31.142Z,1010.27
2018-06-27T07:07:11.662Z,1010.24
2018-06-27T07:07:52.187Z,1010.22
2018-06-27T07:08:32.743Z,1010.23
2018-06-27T07:09:13.275Z,1010.26
2018-06-27T07:09:53.803Z,1010.23
2018-06-27T07:10:34.353Z,1010.26
2018-06-27T07:11:15.040Z,1010.26
2018-06-27T07:11:55.426Z,1010.28
2018-06-27T07:12:35.977Z,1010.31
2018-06-27T07:13:16.501Z,1010.27
2018-06-27T07:13:57.072Z,1010.28
2018-06-27T07:14:37.611Z,1010.27
2018-06-27T07:15:18.115Z,1010.23
2018-06-27T07:15:58.655Z,1010.22
2018-06-27T07:16:39.183Z,1010.25
2018-06-27T07:17:19.713Z,1010.28
2018-06-27T07:18:00.276Z,1010.26
2018-06-27T07:18:40.798Z,1010.26
2018-06-27T07:19:21.308Z,1010.29
2018-06-27T07:20:01.819Z,1010.27
2018-06-27T07:20:42.336Z,1010.29
2018-06-27T07:21:22.867Z,1010.27
2018-06-27T07:22:03.426Z,1010.3
2018-06-27T07:22:43.958Z,1010.22
2018-06-27T07:23:24.479Z,1010.23
2018-06-27T07:24:04.982Z,1010.22
2018-06-27T07:24:45.533Z,1010.22
2018-06-27T07:25:26.067Z,1010.21
2018-06-27T07:26:06.600Z,1010.19
2018-06-27T07:26:47.131Z,1010.21
2018-06-27T07:27:27.671Z,1010.17
2018-06-27T07:28:08.202Z,1010.16
2018-06-27T07:28:48.778Z,1010.15
2018-06-27T07:29:29.251Z,1010.16
2018-06-27T07:30:09.773Z,1010.1
2018-06-27T07:30:50.305Z,1010.14
2018-06-27T07:31:30.830Z,1010.13
2018-06-27T07:32:11.355Z,1010.15
2018-06-27T07:32:51.883Z,1010.16
2018-06-27T07:33:32.404Z,1010.13
2018-06-27T07:34:12.939Z,1010.17
2018-06-27T07:34:53.463Z,1010.15
2018-06-27T07:35:33.998Z,1010.09
2018-06-27T07:36:14.517Z,1010.14
2018-06-27T07:36:55.107Z,1010.09
2018-06-27T07:37:35.632Z,1010.09
2018-06-27T07:38:16.157Z,1010.05
2018-06-27T07:38:56.704Z,1010.07
2018-06-27T07:39:37.253Z,1010.04
2018-06-27T07:40:17.788Z,1010.03
2018-06-27T07:40:58.318Z,1009.99
2018-06-27T07:41:38.853Z,1010.05
2018-06-27T07:42:19.377Z,1010.03
2018-06-27T07:42:59.903Z,1010.05
2018-06-27T07:43:40.447Z,1009.98
2018-06-27T07:44:21.032Z,1010.01
2018-06-27T07:45:01.554Z,1010.04
2018-06-27T07:45:42.068Z,1010
2018-06-27T07:46:22.610Z,1010.01
2018-06-27T07:47:03.124Z,1010
2018-06-27T07:47:43.661Z,1010
2018-06-27T07:48:24.190Z,1009.97
2018-06-27T07:49:04.705Z,1009.95
2018-06-27T07:49:45.251Z,1009.95
2018-06-27T07:50:25.765Z,1009.94
2018-06-27T07:51:06.299Z,1009.96
2018-06-27T07:51:46.833Z,1009.97
2018-06-27T07:52:27.369Z,1009.99
2018-06-27T07:53:07.912Z,1009.99
2018-06-27T07:53:48.436Z,1009.97
2018-06-27T07:54:28.972Z,1010.02
2018-06-27T07:55:09.541Z,1009.95
2018-06-27T07:55:50.045Z,1009.96
2018-06-27T07:56:30.576Z,1009.98
2018-06-27T07:57:11.092Z,1009.95
2018-06-27T07:57:51.610Z,1009.9
2018-06-27T07:58:32.147Z,1009.9
2018-06-27T07:59:12.664Z,1009.93
2018-06-27T07:59:53.186Z,1009.95
2018-06-27T08:00:33.723Z,1009.96
2018-06-27T08:01:14.243Z,1009.9
2018-06-27T08:01:54.805Z,1009.89
2018-06-27T08:02:35.340Z,1009.91
2018-06-27T08:03:15.890Z,1009.88
2018-06-27T08:03:56.430Z,1009.85
2018-06-27T08:04:36.943Z,1009.82
2018-06-27T08:05:17.485Z,1009.91
2018-06-27T08:05:58.055Z,1009.89
2018-06-27T08:06:38.568Z,1009.86
2018-06-27T08:07:19.105Z,1009.83
2018-06-27T08:07:59.651Z,1009.83
2018-06-27T08:08:40.183Z,1009.85
2018-06-27T08:09:20.715Z,1009.83
2018-06-27T08:10:01.246Z,1009.91
2018-06-27T08:10:41.787Z,1009.89
2018-06-27T08:11:22.327Z,1009.82
2018-06-27T08:12:02.867Z,1009.85
2018-06-27T08:12:43.447Z,1009.81
2018-06-27T08:13:23.954Z,1009.86
2018-06-27T08:14:04.473Z,1009.83
2018-06-27T08:14:45.019Z,1009.88
2018-06-27T08:15:25.545Z,1009.86
2018-06-27T08:16:06.186Z,1009.86